sensor_id;sensor_type;location;lat;lon;timestamp;temperature;humidity
17774;DHT22;9011;33.236;-97.118;2022-08-21T00:00:17;32.80;99.90
17774;DHT22;9011;33.236;-97.118;2022-08-21T00:02:51;32.90;99.90
17774;DHT22;9011;33.236;-97.118;2022-08-21T00:05:23;33.00;99.90
17774;DHT22;9011;33.236;-97.118;2022-08-21T00:07:52;32.80;99.90
17774;DHT22;9011;33.236;-97.118;2022-08-21T00:10:21;32.90;99.90
17774;DHT22;9011;33.236;-97.118;2022-08-21T00:12:50;33.00;99.90
17774;DHT22;9011;33.236;-97.118;2022-08-21T00:15:21;33.10;99.90
17774;DHT22;9011;33.236;-97.118;2022-08-21T00:17:50;33.10;99.90
17774;DHT22;9011;33.236;-97.118;2022-08-21T00:20:21;32.90;99.90
17774;DHT22;9011;33.236;-97.118;2022-08-21T00:22:50;32.80;99.90
17774;DHT22;9011;33.236;-97.118;2022-08-21T00:25:19;32.70;99.90
17774;DHT22;9011;33.236;-97.118;2022-08-21T00:27:48;32.60;99.90
17774;DHT22;9011;33.236;-97.118;2022-08-21T00:30:19;32.70;99.90
17774;DHT22;9011;33.236;-97.118;2022-08-21T00:32:47;32.80;99.90
17774;DHT22;9011;33.236;-97.118;2022-08-21T00:35:36;32.80;99.90
17774;DHT22;9011;33.236;-97.118;2022-08-21T00:38:07;32.80;99.90
17774;DHT22;9011;33.236;-97.118;2022-08-21T00:40:43;32.90;99.90
17774;DHT22;9011;33.236;-97.118;2022-08-21T00:43:14;32.80;99.90
17774;DHT22;9011;33.236;-97.118;2022-08-21T00:45:43;32.70;99.90
17774;DHT22;9011;33.236;-97.118;2022-08-21T00:48:11;32.60;99.90
17774;DHT22;9011;33.236;-97.118;2022-08-21T00:50:53;32.60;99.90
17774;DHT22;9011;33.236;-97.118;2022-08-21T00:53:24;32.40;99.90
17774;DHT22;9011;33.236;-97.118;2022-08-21T00:55:53;32.10;99.90
17774;DHT22;9011;33.236;-97.118;2022-08-21T00:58:23;32.20;99.90
17774;DHT22;9011;33.236;-97.118;2022-08-21T01:00:52;32.00;99.90
17774;DHT22;9011;33.236;-97.118;2022-08-21T01:03:23;32.00;99.90
17774;DHT22;9011;33.236;-97.118;2022-08-21T01:05:53;32.00;99.90
17774;DHT22;9011;33.236;-97.118;2022-08-21T01:08:22;32.00;99.90
17774;DHT22;9011;33.236;-97.118;2022-08-21T01:10:50;31.90;99.90
17774;DHT22;9011;33.236;-97.118;2022-08-21T01:13:22;31.90;99.90
17774;DHT22;9011;33.236;-97.118;2022-08-21T01:15:54;32.00;99.90
17774;DHT22;9011;33.236;-97.118;2022-08-21T01:18:23;31.90;99.90
17774;DHT22;9011;33.236;-97.118;2022-08-21T01:21:05;31.90;99.90
17774;DHT22;9011;33.236;-97.118;2022-08-21T01:23:34;31.90;99.90
17774;DHT22;9011;33.236;-97.118;2022-08-21T01:26:04;32.00;99.90
17774;DHT22;9011;33.236;-97.118;2022-08-21T01:28:37;32.00;99.90
17774;DHT22;9011;33.236;-97.118;2022-08-21T01:31:08;32.00;99.90
17774;DHT22;9011;33.236;-97.118;2022-08-21T01:33:37;31.90;99.90
17774;DHT22;9011;33.236;-97.118;2022-08-21T01:36:08;31.70;99.90
17774;DHT22;9011;33.236;-97.118;2022-08-21T01:38:36;31.60;99.90
17774;DHT22;9011;33.236;-97.118;2022-08-21T01:41:04;31.50;99.90
17774;DHT22;9011;33.236;-97.118;2022-08-21T01:43:33;31.50;99.90
17774;DHT22;9011;33.236;-97.118;2022-08-21T01:46:03;31.50;99.90
17774;DHT22;9011;33.236;-97.118;2022-08-21T01:48:32;31.50;99.90
17774;DHT22;9011;33.236;-97.118;2022-08-21T01:51:04;31.40;99.90
17774;DHT22;9011;33.236;-97.118;2022-08-21T01:53:34;31.40;99.90
17774;DHT22;9011;33.236;-97.118;2022-08-21T01:56:06;31.30;99.90
17774;DHT22;9011;33.236;-97.118;2022-08-21T01:58:35;31.30;99.90
17774;DHT22;9011;33.236;-97.118;2022-08-21T02:01:04;31.30;99.90
17774;DHT22;9011;33.236;-97.118;2022-08-21T02:03:35;31.30;99.90
17774;DHT22;9011;33.236;-97.118;2022-08-21T02:06:04;31.30;99.90
17774;DHT22;9011;33.236;-97.118;2022-08-21T02:08:35;31.30;99.90
17774;DHT22;9011;33.236;-97.118;2022-08-21T02:11:03;31.40;99.90
17774;DHT22;9011;33.236;-97.118;2022-08-21T02:13:31;31.40;99.90
17774;DHT22;9011;33.236;-97.118;2022-08-21T02:15:59;31.30;99.90
17774;DHT22;9011;33.236;-97.118;2022-08-21T02:18:28;31.20;99.90
17774;DHT22;9011;33.236;-97.118;2022-08-21T02:20:58;31.10;99.90
17774;DHT22;9011;33.236;-97.118;2022-08-21T02:23:26;31.00;99.90
17774;DHT22;9011;33.236;-97.118;2022-08-21T02:25:57;31.10;99.90
17774;DHT22;9011;33.236;-97.118;2022-08-21T02:28:26;31.10;99.90
17774;DHT22;9011;33.236;-97.118;2022-08-21T02:30:55;31.10;99.90
17774;DHT22;9011;33.236;-97.118;2022-08-21T02:33:25;31.20;99.90
17774;DHT22;9011;33.236;-97.118;2022-08-21T02:35:54;30.80;99.90
17774;DHT22;9011;33.236;-97.118;2022-08-21T02:38:29;30.90;99.90
17774;DHT22;9011;33.236;-97.118;2022-08-21T02:41:00;30.80;99.90
17774;DHT22;9011;33.236;-97.118;2022-08-21T02:43:29;30.80;99.90
17774;DHT22;9011;33.236;-97.118;2022-08-21T02:45:57;30.90;99.90
17774;DHT22;9011;33.236;-97.118;2022-08-21T02:48:28;30.80;99.90
17774;DHT22;9011;33.236;-97.118;2022-08-21T02:50:59;30.80;99.90
17774;DHT22;9011;33.236;-97.118;2022-08-21T02:53:27;30.70;99.90
17774;DHT22;9011;33.236;-97.118;2022-08-21T02:55:58;30.70;99.90
17774;DHT22;9011;33.236;-97.118;2022-08-21T02:58:32;30.60;99.90
17774;DHT22;9011;33.236;-97.118;2022-08-21T03:01:01;30.60;99.90
17774;DHT22;9011;33.236;-97.118;2022-08-21T03:03:30;30.50;99.90
17774;DHT22;9011;33.236;-97.118;2022-08-21T03:06:00;30.60;99.90
17774;DHT22;9011;33.236;-97.118;2022-08-21T03:08:29;30.50;99.90
17774;DHT22;9011;33.236;-97.118;2022-08-21T03:10:57;30.40;99.90
17774;DHT22;9011;33.236;-97.118;2022-08-21T03:13:28;30.30;99.90
17774;DHT22;9011;33.236;-97.118;2022-08-21T03:15:57;30.40;99.90
17774;DHT22;9011;33.236;-97.118;2022-08-21T03:18:25;30.40;99.90
17774;DHT22;9011;33.236;-97.118;2022-08-21T03:20:53;30.30;99.90
17774;DHT22;9011;33.236;-97.118;2022-08-21T03:23:28;30.30;99.90
17774;DHT22;9011;33.236;-97.118;2022-08-21T03:25:57;30.20;99.90
17774;DHT22;9011;33.236;-97.118;2022-08-21T03:28:25;30.00;99.90
17774;DHT22;9011;33.236;-97.118;2022-08-21T03:30:55;29.90;99.90
17774;DHT22;9011;33.236;-97.118;2022-08-21T03:33:24;29.90;99.90
17774;DHT22;9011;33.236;-97.118;2022-08-21T03:35:58;29.90;99.90
17774;DHT22;9011;33.236;-97.118;2022-08-21T03:38:28;29.80;99.90
17774;DHT22;9011;33.236;-97.118;2022-08-21T03:40:57;29.80;99.90
17774;DHT22;9011;33.236;-97.118;2022-08-21T03:43:25;29.80;99.90
17774;DHT22;9011;33.236;-97.118;2022-08-21T03:45:55;29.70;99.90
17774;DHT22;9011;33.236;-97.118;2022-08-21T03:48:28;29.40;99.90
17774;DHT22;9011;33.236;-97.118;2022-08-21T03:50:56;29.50;99.90
17774;DHT22;9011;33.236;-97.118;2022-08-21T03:53:25;29.50;99.90
17774;DHT22;9011;33.236;-97.118;2022-08-21T03:55:56;29.60;99.90
17774;DHT22;9011;33.236;-97.118;2022-08-21T03:58:26;29.50;99.90
17774;DHT22;9011;33.236;-97.118;2022-08-21T04:00:58;29.40;99.90
17774;DHT22;9011;33.236;-97.118;2022-08-21T04:03:27;29.40;99.90
17774;DHT22;9011;33.236;-97.118;2022-08-21T04:05:55;29.20;99.90
17774;DHT22;9011;33.236;-97.118;2022-08-21T04:08:24;29.20;99.90
17774;DHT22;9011;33.236;-97.118;2022-08-21T04:10:54;29.10;99.90
17774;DHT22;9011;33.236;-97.118;2022-08-21T04:13:23;29.20;99.90
17774;DHT22;9011;33.236;-97.118;2022-08-21T04:15:57;29.20;99.90
17774;DHT22;9011;33.236;-97.118;2022-08-21T04:18:28;29.20;99.90
17774;DHT22;9011;33.236;-97.118;2022-08-21T04:20:58;29.10;99.90
17774;DHT22;9011;33.236;-97.118;2022-08-21T04:23:27;29.00;99.90
17774;DHT22;9011;33.236;-97.118;2022-08-21T04:25:56;29.10;99.90
17774;DHT22;9011;33.236;-97.118;2022-08-21T04:28:26;29.10;99.90
17774;DHT22;9011;33.236;-97.118;2022-08-21T04:30:57;29.10;99.90
17774;DHT22;9011;33.236;-97.118;2022-08-21T04:33:25;29.20;99.90
17774;DHT22;9011;33.236;-97.118;2022-08-21T04:35:54;29.20;99.90
17774;DHT22;9011;33.236;-97.118;2022-08-21T04:38:22;29.10;99.90
17774;DHT22;9011;33.236;-97.118;2022-08-21T04:40:51;29.10;99.90
17774;DHT22;9011;33.236;-97.118;2022-08-21T04:43:27;29.10;99.90
17774;DHT22;9011;33.236;-97.118;2022-08-21T04:45:58;29.00;99.90
17774;DHT22;9011;33.236;-97.118;2022-08-21T04:48:27;29.00;99.90
17774;DHT22;9011;33.236;-97.118;2022-08-21T04:51:01;29.00;99.90
17774;DHT22;9011;33.236;-97.118;2022-08-21T04:53:33;28.90;99.90
17774;DHT22;9011;33.236;-97.118;2022-08-21T04:56:06;28.80;99.90
17774;DHT22;9011;33.236;-97.118;2022-08-21T04:58:38;28.80;99.90
17774;DHT22;9011;33.236;-97.118;2022-08-21T05:01:16;28.70;99.90
17774;DHT22;9011;33.236;-97.118;2022-08-21T05:03:45;28.70;99.90
17774;DHT22;9011;33.236;-97.118;2022-08-21T05:06:15;28.70;99.90
17774;DHT22;9011;33.236;-97.118;2022-08-21T05:08:46;28.70;99.90
17774;DHT22;9011;33.236;-97.118;2022-08-21T05:11:15;28.70;99.90
17774;DHT22;9011;33.236;-97.118;2022-08-21T05:13:45;28.70;99.90
17774;DHT22;9011;33.236;-97.118;2022-08-21T05:16:15;28.80;99.90
17774;DHT22;9011;33.236;-97.118;2022-08-21T05:18:43;28.60;99.90
17774;DHT22;9011;33.236;-97.118;2022-08-21T05:21:11;28.50;99.90
17774;DHT22;9011;33.236;-97.118;2022-08-21T05:23:40;28.70;99.90
17774;DHT22;9011;33.236;-97.118;2022-08-21T05:26:09;28.70;99.90
17774;DHT22;9011;33.236;-97.118;2022-08-21T05:28:37;28.60;99.90
17774;DHT22;9011;33.236;-97.118;2022-08-21T05:31:05;28.60;99.90
17774;DHT22;9011;33.236;-97.118;2022-08-21T05:33:35;28.50;99.90
17774;DHT22;9011;33.236;-97.118;2022-08-21T05:36:04;28.40;99.90
17774;DHT22;9011;33.236;-97.118;2022-08-21T05:38:32;28.40;99.90
17774;DHT22;9011;33.236;-97.118;2022-08-21T05:41:01;28.40;99.90
17774;DHT22;9011;33.236;-97.118;2022-08-21T05:43:29;28.40;99.90
17774;DHT22;9011;33.236;-97.118;2022-08-21T05:45:59;28.40;99.90
17774;DHT22;9011;33.236;-97.118;2022-08-21T05:48:27;28.40;99.90
17774;DHT22;9011;33.236;-97.118;2022-08-21T05:50:57;28.40;99.90
17774;DHT22;9011;33.236;-97.118;2022-08-21T05:53:25;28.50;99.90
17774;DHT22;9011;33.236;-97.118;2022-08-21T05:55:53;28.50;99.90
17774;DHT22;9011;33.236;-97.118;2022-08-21T05:58:22;28.50;99.90
17774;DHT22;9011;33.236;-97.118;2022-08-21T06:00:51;28.40;99.90
17774;DHT22;9011;33.236;-97.118;2022-08-21T06:03:21;28.40;99.90
17774;DHT22;9011;33.236;-97.118;2022-08-21T06:05:50;28.40;99.90
17774;DHT22;9011;33.236;-97.118;2022-08-21T06:08:20;28.50;99.90
17774;DHT22;9011;33.236;-97.118;2022-08-21T06:10:50;28.40;99.90
17774;DHT22;9011;33.236;-97.118;2022-08-21T06:13:19;28.40;99.90
17774;DHT22;9011;33.236;-97.118;2022-08-21T06:15:49;28.50;99.90
17774;DHT22;9011;33.236;-97.118;2022-08-21T06:18:18;28.50;99.90
17774;DHT22;9011;33.236;-97.118;2022-08-21T06:20:46;28.40;99.90
17774;DHT22;9011;33.236;-97.118;2022-08-21T06:23:18;28.40;99.90
17774;DHT22;9011;33.236;-97.118;2022-08-21T06:25:47;28.40;99.90
17774;DHT22;9011;33.236;-97.118;2022-08-21T06:28:15;28.40;99.90
17774;DHT22;9011;33.236;-97.118;2022-08-21T06:30:43;28.40;99.90
17774;DHT22;9011;33.236;-97.118;2022-08-21T06:33:12;28.30;99.90
17774;DHT22;9011;33.236;-97.118;2022-08-21T06:35:40;28.30;99.90
17774;DHT22;9011;33.236;-97.118;2022-08-21T06:38:10;28.30;99.90
17774;DHT22;9011;33.236;-97.118;2022-08-21T06:40:39;28.10;99.90
17774;DHT22;9011;33.236;-97.118;2022-08-21T06:43:09;28.20;99.90
17774;DHT22;9011;33.236;-97.118;2022-08-21T06:45:38;28.00;99.90
17774;DHT22;9011;33.236;-97.118;2022-08-21T06:48:07;28.00;99.90
17774;DHT22;9011;33.236;-97.118;2022-08-21T06:50:35;28.00;99.90
17774;DHT22;9011;33.236;-97.118;2022-08-21T06:53:08;28.00;99.90
17774;DHT22;9011;33.236;-97.118;2022-08-21T06:55:36;28.00;99.90
17774;DHT22;9011;33.236;-97.118;2022-08-21T06:58:07;28.10;99.90
17774;DHT22;9011;33.236;-97.118;2022-08-21T07:00:39;28.00;99.90
17774;DHT22;9011;33.236;-97.118;2022-08-21T07:03:07;27.90;99.90
17774;DHT22;9011;33.236;-97.118;2022-08-21T07:05:44;27.90;99.90
17774;DHT22;9011;33.236;-97.118;2022-08-21T07:08:12;27.90;99.90
17774;DHT22;9011;33.236;-97.118;2022-08-21T07:10:40;27.80;99.90
17774;DHT22;9011;33.236;-97.118;2022-08-21T07:13:10;27.70;99.90
17774;DHT22;9011;33.236;-97.118;2022-08-21T07:15:38;27.80;99.90
17774;DHT22;9011;33.236;-97.118;2022-08-21T07:18:07;27.80;99.90
17774;DHT22;9011;33.236;-97.118;2022-08-21T07:20:36;27.80;99.90
17774;DHT22;9011;33.236;-97.118;2022-08-21T07:23:08;27.90;99.90
17774;DHT22;9011;33.236;-97.118;2022-08-21T07:25:38;27.80;99.90
17774;DHT22;9011;33.236;-97.118;2022-08-21T07:28:06;27.90;99.90
17774;DHT22;9011;33.236;-97.118;2022-08-21T07:30:36;27.90;99.90
17774;DHT22;9011;33.236;-97.118;2022-08-21T07:33:05;27.70;99.90
17774;DHT22;9011;33.236;-97.118;2022-08-21T07:35:33;27.70;99.90
17774;DHT22;9011;33.236;-97.118;2022-08-21T07:38:02;27.70;99.90
17774;DHT22;9011;33.236;-97.118;2022-08-21T07:40:30;27.80;99.90
17774;DHT22;9011;33.236;-97.118;2022-08-21T07:42:58;27.80;99.90
17774;DHT22;9011;33.236;-97.118;2022-08-21T07:45:27;27.70;99.90
17774;DHT22;9011;33.236;-97.118;2022-08-21T07:47:57;27.80;99.90
17774;DHT22;9011;33.236;-97.118;2022-08-21T07:50:25;27.80;99.90
17774;DHT22;9011;33.236;-97.118;2022-08-21T07:52:54;27.60;99.90
17774;DHT22;9011;33.236;-97.118;2022-08-21T07:55:22;27.70;99.90
17774;DHT22;9011;33.236;-97.118;2022-08-21T07:57:50;27.80;99.90
17774;DHT22;9011;33.236;-97.118;2022-08-21T08:00:20;27.80;99.90
17774;DHT22;9011;33.236;-97.118;2022-08-21T08:02:50;27.70;99.90
17774;DHT22;9011;33.236;-97.118;2022-08-21T08:05:23;27.70;99.90
17774;DHT22;9011;33.236;-97.118;2022-08-21T08:07:52;27.70;99.90
17774;DHT22;9011;33.236;-97.118;2022-08-21T08:10:22;27.70;99.90
17774;DHT22;9011;33.236;-97.118;2022-08-21T08:12:51;27.70;99.90
17774;DHT22;9011;33.236;-97.118;2022-08-21T08:15:22;27.60;99.90
17774;DHT22;9011;33.236;-97.118;2022-08-21T08:17:51;27.70;99.90
17774;DHT22;9011;33.236;-97.118;2022-08-21T08:20:21;27.70;99.90
17774;DHT22;9011;33.236;-97.118;2022-08-21T08:22:50;27.70;99.90
17774;DHT22;9011;33.236;-97.118;2022-08-21T08:25:19;27.60;99.90
17774;DHT22;9011;33.236;-97.118;2022-08-21T08:27:48;27.60;99.90
17774;DHT22;9011;33.236;-97.118;2022-08-21T08:30:18;27.60;99.90
17774;DHT22;9011;33.236;-97.118;2022-08-21T08:32:48;27.60;99.90
17774;DHT22;9011;33.236;-97.118;2022-08-21T08:35:17;27.60;99.90
17774;DHT22;9011;33.236;-97.118;2022-08-21T08:37:47;27.70;99.90
17774;DHT22;9011;33.236;-97.118;2022-08-21T08:40:22;27.60;99.90
17774;DHT22;9011;33.236;-97.118;2022-08-21T08:42:52;27.60;99.90
17774;DHT22;9011;33.236;-97.118;2022-08-21T08:45:22;27.60;99.90
17774;DHT22;9011;33.236;-97.118;2022-08-21T08:47:55;27.60;99.90
17774;DHT22;9011;33.236;-97.118;2022-08-21T08:50:27;27.70;99.90
17774;DHT22;9011;33.236;-97.118;2022-08-21T08:52:59;27.40;99.90
17774;DHT22;9011;33.236;-97.118;2022-08-21T08:55:35;27.60;99.90
17774;DHT22;9011;33.236;-97.118;2022-08-21T08:58:04;27.50;99.90
17774;DHT22;9011;33.236;-97.118;2022-08-21T09:00:33;27.50;99.90
17774;DHT22;9011;33.236;-97.118;2022-08-21T09:03:02;27.50;99.90
17774;DHT22;9011;33.236;-97.118;2022-08-21T09:05:39;27.50;99.90
17774;DHT22;9011;33.236;-97.118;2022-08-21T09:08:24;27.50;99.90
17774;DHT22;9011;33.236;-97.118;2022-08-21T09:11:02;27.40;99.90
17774;DHT22;9011;33.236;-97.118;2022-08-21T09:13:45;27.40;99.90
17774;DHT22;9011;33.236;-97.118;2022-08-21T09:16:21;27.50;99.90
17774;DHT22;9011;33.236;-97.118;2022-08-21T09:19:01;27.50;99.90
17774;DHT22;9011;33.236;-97.118;2022-08-21T09:21:38;27.60;99.90
17774;DHT22;9011;33.236;-97.118;2022-08-21T09:24:22;27.60;99.90
17774;DHT22;9011;33.236;-97.118;2022-08-21T09:27:00;27.50;99.90
17774;DHT22;9011;33.236;-97.118;2022-08-21T09:29:34;27.60;99.90
17774;DHT22;9011;33.236;-97.118;2022-08-21T09:32:09;27.60;99.90
17774;DHT22;9011;33.236;-97.118;2022-08-21T09:34:38;27.60;99.90
17774;DHT22;9011;33.236;-97.118;2022-08-21T09:37:16;27.60;99.90
17774;DHT22;9011;33.236;-97.118;2022-08-21T09:39:49;27.60;99.90
17774;DHT22;9011;33.236;-97.118;2022-08-21T09:42:23;27.50;99.90
17774;DHT22;9011;33.236;-97.118;2022-08-21T09:45:07;27.60;99.90
17774;DHT22;9011;33.236;-97.118;2022-08-21T09:47:37;27.40;99.90
17774;DHT22;9011;33.236;-97.118;2022-08-21T09:50:10;27.30;99.90
17774;DHT22;9011;33.236;-97.118;2022-08-21T09:52:49;27.30;99.90
17774;DHT22;9011;33.236;-97.118;2022-08-21T09:55:24;27.40;99.90
17774;DHT22;9011;33.236;-97.118;2022-08-21T09:58:11;27.30;99.90
17774;DHT22;9011;33.236;-97.118;2022-08-21T10:00:39;27.30;99.90
17774;DHT22;9011;33.236;-97.118;2022-08-21T10:03:10;27.40;99.90
17774;DHT22;9011;33.236;-97.118;2022-08-21T10:05:39;27.40;99.90
17774;DHT22;9011;33.236;-97.118;2022-08-21T10:08:17;27.20;99.90
17774;DHT22;9011;33.236;-97.118;2022-08-21T10:10:51;27.30;99.90
17774;DHT22;9011;33.236;-97.118;2022-08-21T10:13:28;27.20;99.90
17774;DHT22;9011;33.236;-97.118;2022-08-21T10:16:08;27.20;99.90
17774;DHT22;9011;33.236;-97.118;2022-08-21T10:18:40;27.10;99.90
17774;DHT22;9011;33.236;-97.118;2022-08-21T10:21:15;27.20;99.90
17774;DHT22;9011;33.236;-97.118;2022-08-21T10:24:01;27.20;99.90
17774;DHT22;9011;33.236;-97.118;2022-08-21T10:26:43;27.20;99.90
17774;DHT22;9011;33.236;-97.118;2022-08-21T10:29:20;27.20;99.90
17774;DHT22;9011;33.236;-97.118;2022-08-21T10:31:54;27.30;99.90
17774;DHT22;9011;33.236;-97.118;2022-08-21T10:34:40;27.30;99.90
17774;DHT22;9011;33.236;-97.118;2022-08-21T10:37:25;27.30;99.90
17774;DHT22;9011;33.236;-97.118;2022-08-21T10:40:07;27.20;99.90
17774;DHT22;9011;33.236;-97.118;2022-08-21T10:42:48;27.30;99.90
17774;DHT22;9011;33.236;-97.118;2022-08-21T10:45:30;27.40;99.90
17774;DHT22;9011;33.236;-97.118;2022-08-21T10:48:04;27.40;99.90
17774;DHT22;9011;33.236;-97.118;2022-08-21T10:50:38;27.40;99.90
17774;DHT22;9011;33.236;-97.118;2022-08-21T10:53:36;27.40;99.90
17774;DHT22;9011;33.236;-97.118;2022-08-21T10:56:15;27.40;99.90
17774;DHT22;9011;33.236;-97.118;2022-08-21T10:58:56;27.40;99.90
17774;DHT22;9011;33.236;-97.118;2022-08-21T11:01:31;27.40;99.90
17774;DHT22;9011;33.236;-97.118;2022-08-21T11:04:10;27.50;99.90
17774;DHT22;9011;33.236;-97.118;2022-08-21T11:06:42;27.40;99.90
17774;DHT22;9011;33.236;-97.118;2022-08-21T11:09:14;27.30;99.90
17774;DHT22;9011;33.236;-97.118;2022-08-21T11:11:47;27.30;99.90
17774;DHT22;9011;33.236;-97.118;2022-08-21T11:14:28;27.30;99.90
17774;DHT22;9011;33.236;-97.118;2022-08-21T11:17:01;27.30;99.90
17774;DHT22;9011;33.236;-97.118;2022-08-21T11:19:35;27.20;99.90
17774;DHT22;9011;33.236;-97.118;2022-08-21T11:22:13;27.30;99.90
17774;DHT22;9011;33.236;-97.118;2022-08-21T11:24:46;27.20;99.90
17774;DHT22;9011;33.236;-97.118;2022-08-21T11:27:21;27.20;99.90
17774;DHT22;9011;33.236;-97.118;2022-08-21T11:29:54;27.30;99.90
17774;DHT22;9011;33.236;-97.118;2022-08-21T11:32:42;27.20;99.90
17774;DHT22;9011;33.236;-97.118;2022-08-21T11:35:20;27.20;99.90
17774;DHT22;9011;33.236;-97.118;2022-08-21T11:38:03;27.30;99.90
17774;DHT22;9011;33.236;-97.118;2022-08-21T11:40:47;27.20;99.90
17774;DHT22;9011;33.236;-97.118;2022-08-21T11:43:35;27.10;99.90
17774;DHT22;9011;33.236;-97.118;2022-08-21T11:46:29;27.00;99.90
17774;DHT22;9011;33.236;-97.118;2022-08-21T11:49:17;27.00;99.90
17774;DHT22;9011;33.236;-97.118;2022-08-21T11:51:55;27.00;99.90
17774;DHT22;9011;33.236;-97.118;2022-08-21T11:54:29;27.10;99.90
17774;DHT22;9011;33.236;-97.118;2022-08-21T11:57:01;27.10;99.90
17774;DHT22;9011;33.236;-97.118;2022-08-21T11:59:35;27.00;99.90
17774;DHT22;9011;33.236;-97.118;2022-08-21T12:02:16;27.10;99.90
17774;DHT22;9011;33.236;-97.118;2022-08-21T12:04:48;27.10;99.90
17774;DHT22;9011;33.236;-97.118;2022-08-21T12:07:30;27.10;99.90
17774;DHT22;9011;33.236;-97.118;2022-08-21T12:09:59;27.00;99.90
17774;DHT22;9011;33.236;-97.118;2022-08-21T12:12:30;27.10;99.90
17774;DHT22;9011;33.236;-97.118;2022-08-21T12:18:02;27.20;99.90
17774;DHT22;9011;33.236;-97.118;2022-08-21T12:20:38;27.20;99.90
17774;DHT22;9011;33.236;-97.118;2022-08-21T12:23:17;27.10;99.90
17774;DHT22;9011;33.236;-97.118;2022-08-21T12:25:58;27.10;99.90
17774;DHT22;9011;33.236;-97.118;2022-08-21T12:28:28;27.10;99.90
17774;DHT22;9011;33.236;-97.118;2022-08-21T12:30:57;27.10;99.90
